Soderhamn

ESCL · Gävleborg, Schweden

Die verwendete TAF-Station ist 127 km vom Flughafen entfernt
Gültig von 15. Juli 2024 14:00 bis 15. Juli 2024 16:00
Uhrzeit
montag
14:00
40%
montag
15:00
40%
Code
VFR
VFR
Wetter
Vereinzelte Wolken
Vereinzelte Wolken
Sichtweite
10 km+
10 km+
Wolkendecke
-
-
Wind
190°
190°
190°
190°
Geschwindigkeit
8 kt
8 kt
Böen
Temperatur/Sonne

Original

TAF ESSD 151130Z 1512/1514 19008KT 9999 SCT040
PROB40 1512/1514 SHRA BKN050CB

TAF Soderhamn

Soderhamn ist ein unbekannt in Gävleborg, Schweden. Der Flughafen befindet sich auf dem Breitengrad 61,26667 und dem Längengrad 17,10000. Der ICAO-Flughafencode dieses Feldes ist ESCL. Der Flughafen befindet sich in der Sweden FIR.

Diese Flugwetterbeobachtung wurde für Borlange Airport am 15. Juli 2024 13:30, Ortszeit gemacht. Gültig von 15. Juli 2024 14:00 bis 15. Juli 2024 16:00, Ortszeit.

Vorhersage

  • Zwischen montag 14:00 und 16:00

    • Wind: Der Wind kommt aus der Richtung 190° mit einer Geschwindigkeit von 8 kt.
    • Sichtweite: 10 km oder mehr
    • Wolken: vereinzelte Wolken in einer Höhe von 4.000 ft.
  • Zwischen montag 14:00 und 16:00 (40% Chance)

    • Wolken: durchbrochene Wolken Kumulonimbus in einer Höhe von 5.000 ft.

Tageslichtdauer

Heute geht die Sonne um 03:44 auf und um 22:11 unter. Dies gilt für Soderhamn, die universelle Tageslichtperiode kann anders sein. Der Unterschied zwischen der Ortszeit und UTC beträgt +2 Stunde. Die Sommerzeit ist derzeit im Gange.

Eine Änderung melden